sensor_id;sensor_type;location;lat;lon;timestamp;P1;durP1;ratioP1;P2;durP2;ratioP2
57615;SDS011;43816;52.054;-9.494;2022-09-09T00:00:05;1.40;;;0.90;;
57615;SDS011;43816;52.054;-9.494;2022-09-09T00:00:21;1.27;;;0.82;;
57615;SDS011;43816;52.054;-9.494;2022-09-09T00:00:32;1.08;;;0.73;;
57615;SDS011;43816;52.054;-9.494;2022-09-09T00:00:47;1.45;;;0.70;;
57615;SDS011;43816;52.054;-9.494;2022-09-09T00:02:28;1.52;;;0.80;;
57615;SDS011;43816;52.054;-9.494;2022-09-09T00:02:38;1.33;;;0.73;;
57615;SDS011;43816;52.054;-9.494;2022-09-09T00:03:43;1.80;;;0.90;;
57615;SDS011;43816;52.054;-9.494;2022-09-09T00:04:26;1.58;;;0.85;;
57615;SDS011;43816;52.054;-9.494;2022-09-09T00:04:41;1.30;;;0.90;;
57615;SDS011;43816;52.054;-9.494;2022-09-09T00:05:00;1.55;;;1.00;;
57615;SDS011;43816;52.054;-9.494;2022-09-09T00:05:29;1.88;;;0.90;;
57615;SDS011;43816;52.054;-9.494;2022-09-09T00:06:08;1.50;;;0.93;;
57615;SDS011;43816;52.054;-9.494;2022-09-09T00:06:34;1.90;;;0.80;;
57615;SDS011;43816;52.054;-9.494;2022-09-09T00:08:01;1.30;;;0.90;;
57615;SDS011;43816;52.054;-9.494;2022-09-09T00:08:24;1.42;;;0.93;;
57615;SDS011;43816;52.054;-9.494;2022-09-09T00:09:19;1.58;;;0.85;;
57615;SDS011;43816;52.054;-9.494;2022-09-09T00:10:11;1.77;;;1.00;;
57615;SDS011;43816;52.054;-9.494;2022-09-09T00:10:38;2.20;;;1.10;;
57615;SDS011;43816;52.054;-9.494;2022-09-09T00:10:51;1.80;;;1.00;;
57615;SDS011;43816;52.054;-9.494;2022-09-09T00:11:07;2.00;;;0.80;;
57615;SDS011;43816;52.054;-9.494;2022-09-09T00:11:24;1.80;;;0.70;;
57615;SDS011;43816;52.054;-9.494;2022-09-09T00:12:02;2.17;;;1.02;;
57615;SDS011;43816;52.054;-9.494;2022-09-09T00:12:33;2.08;;;0.88;;
57615;SDS011;43816;52.054;-9.494;2022-09-09T00:13:28;2.15;;;0.85;;
57615;SDS011;43816;52.054;-9.494;2022-09-09T00:13:43;1.38;;;0.80;;
57615;SDS011;43816;52.054;-9.494;2022-09-09T00:13:58;1.38;;;0.82;;
57615;SDS011;43816;52.054;-9.494;2022-09-09T00:14:52;2.10;;;0.90;;
57615;SDS011;43816;52.054;-9.494;2022-09-09T00:15:12;1.88;;;1.02;;
57615;SDS011;43816;52.054;-9.494;2022-09-09T00:15:31;1.55;;;1.00;;
57615;SDS011;43816;52.054;-9.494;2022-09-09T00:16:21;1.85;;;1.02;;
57615;SDS011;43816;52.054;-9.494;2022-09-09T00:16:35;1.70;;;0.90;;
57615;SDS011;43816;52.054;-9.494;2022-09-09T00:16:53;1.23;;;1.00;;
57615;SDS011;43816;52.054;-9.494;2022-09-09T00:17:21;1.05;;;0.90;;
57615;SDS011;43816;52.054;-9.494;2022-09-09T00:17:50;2.05;;;0.98;;
57615;SDS011;43816;52.054;-9.494;2022-09-09T00:19:31;1.63;;;0.80;;
57615;SDS011;43816;52.054;-9.494;2022-09-09T00:21:05;1.80;;;1.10;;
57615;SDS011;43816;52.054;-9.494;2022-09-09T00:21:15;2.50;;;0.90;;
57615;SDS011;43816;52.054;-9.494;2022-09-09T00:21:35;2.45;;;0.90;;
57615;SDS011;43816;52.054;-9.494;2022-09-09T00:21:57;1.42;;;0.82;;
57615;SDS011;43816;52.054;-9.494;2022-09-09T00:22:25;1.35;;;0.82;;
57615;SDS011;43816;52.054;-9.494;2022-09-09T00:22:40;1.25;;;0.77;;
57615;SDS011;43816;52.054;-9.494;2022-09-09T00:23:10;1.55;;;0.80;;
57615;SDS011;43816;52.054;-9.494;2022-09-09T00:23:25;1.13;;;0.88;;
57615;SDS011;43816;52.054;-9.494;2022-09-09T00:23:39;1.25;;;0.88;;
57615;SDS011;43816;52.054;-9.494;2022-09-09T00:23:53;1.30;;;0.88;;
57615;SDS011;43816;52.054;-9.494;2022-09-09T00:24:14;1.23;;;0.75;;
57615;SDS011;43816;52.054;-9.494;2022-09-09T00:24:45;1.33;;;0.88;;
57615;SDS011;43816;52.054;-9.494;2022-09-09T00:25:08;1.77;;;1.02;;
57615;SDS011;43816;52.054;-9.494;2022-09-09T00:26:20;1.67;;;0.80;;
57615;SDS011;43816;52.054;-9.494;2022-09-09T00:26:38;1.27;;;0.73;;
57615;SDS011;43816;52.054;-9.494;2022-09-09T00:26:53;1.55;;;0.88;;
57615;SDS011;43816;52.054;-9.494;2022-09-09T00:27:47;1.48;;;0.90;;
57615;SDS011;43816;52.054;-9.494;2022-09-09T00:27:58;1.30;;;0.90;;
57615;SDS011;43816;52.054;-9.494;2022-09-09T00:28:18;1.43;;;0.77;;
57615;SDS011;43816;52.054;-9.494;2022-09-09T00:28:33;1.80;;;0.80;;
57615;SDS011;43816;52.054;-9.494;2022-09-09T00:29:15;1.17;;;0.88;;
57615;SDS011;43816;52.054;-9.494;2022-09-09T00:29:50;1.77;;;1.00;;
57615;SDS011;43816;52.054;-9.494;2022-09-09T00:30:21;1.98;;;0.80;;
57615;SDS011;43816;52.054;-9.494;2022-09-09T00:30:34;1.02;;;0.80;;
57615;SDS011;43816;52.054;-9.494;2022-09-09T00:30:45;0.90;;;0.70;;
57615;SDS011;43816;52.054;-9.494;2022-09-09T00:30:56;0.70;;;0.70;;
57615;SDS011;43816;52.054;-9.494;2022-09-09T00:31:13;0.90;;;0.80;;
57615;SDS011;43816;52.054;-9.494;2022-09-09T00:31:27;1.73;;;0.90;;
57615;SDS011;43816;52.054;-9.494;2022-09-09T00:31:39;1.67;;;0.90;;
57615;SDS011;43816;52.054;-9.494;2022-09-09T00:31:50;1.10;;;0.80;;
57615;SDS011;43816;52.054;-9.494;2022-09-09T00:32:13;0.88;;;0.70;;
57615;SDS011;43816;52.054;-9.494;2022-09-09T00:32:27;1.10;;;0.80;;
57615;SDS011;43816;52.054;-9.494;2022-09-09T00:32:40;1.30;;;1.00;;
57615;SDS011;43816;52.054;-9.494;2022-09-09T00:32:53;1.33;;;0.93;;
57615;SDS011;43816;52.054;-9.494;2022-09-09T00:33:20;1.67;;;1.00;;
57615;SDS011;43816;52.054;-9.494;2022-09-09T00:33:33;1.48;;;0.95;;
57615;SDS011;43816;52.054;-9.494;2022-09-09T00:33:44;1.23;;;1.00;;
57615;SDS011;43816;52.054;-9.494;2022-09-09T00:34:31;1.52;;;1.05;;
57615;SDS011;43816;52.054;-9.494;2022-09-09T00:34:42;1.33;;;0.95;;
57615;SDS011;43816;52.054;-9.494;2022-09-09T00:34:46;1.27;;;0.80;;
57615;SDS011;43816;52.054;-9.494;2022-09-09T00:35:03;1.58;;;0.70;;
57615;SDS011;43816;52.054;-9.494;2022-09-09T00:35:29;1.95;;;0.93;;
57615;SDS011;43816;52.054;-9.494;2022-09-09T00:35:51;1.55;;;0.88;;
57615;SDS011;43816;52.054;-9.494;2022-09-09T00:36:04;1.10;;;0.70;;
57615;SDS011;43816;52.054;-9.494;2022-09-09T00:36:23;1.45;;;0.82;;
57615;SDS011;43816;52.054;-9.494;2022-09-09T00:36:36;1.80;;;1.00;;
57615;SDS011;43816;52.054;-9.494;2022-09-09T00:36:48;1.98;;;1.08;;
57615;SDS011;43816;52.054;-9.494;2022-09-09T00:37:00;1.50;;;0.80;;
57615;SDS011;43816;52.054;-9.494;2022-09-09T00:37:12;1.52;;;0.82;;
57615;SDS011;43816;52.054;-9.494;2022-09-09T00:37:24;1.52;;;0.90;;
57615;SDS011;43816;52.054;-9.494;2022-09-09T00:37:36;1.13;;;0.80;;
57615;SDS011;43816;52.054;-9.494;2022-09-09T00:37:47;1.25;;;0.80;;
57615;SDS011;43816;52.054;-9.494;2022-09-09T00:38:01;1.30;;;0.90;;
57615;SDS011;43816;52.054;-9.494;2022-09-09T00:38:47;1.65;;;0.80;;
57615;SDS011;43816;52.054;-9.494;2022-09-09T00:39:01;1.50;;;0.88;;
57615;SDS011;43816;52.054;-9.494;2022-09-09T00:39:17;1.10;;;0.73;;
57615;SDS011;43816;52.054;-9.494;2022-09-09T00:39:38;1.25;;;0.90;;
57615;SDS011;43816;52.054;-9.494;2022-09-09T00:39:51;1.25;;;0.90;;
57615;SDS011;43816;52.054;-9.494;2022-09-09T00:40:08;1.60;;;0.77;;
57615;SDS011;43816;52.054;-9.494;2022-09-09T00:40:33;1.17;;;0.70;;
57615;SDS011;43816;52.054;-9.494;2022-09-09T00:41:14;1.75;;;0.98;;
57615;SDS011;43816;52.054;-9.494;2022-09-09T00:42:24;1.30;;;0.80;;
57615;SDS011;43816;52.054;-9.494;2022-09-09T00:42:40;1.23;;;0.75;;
57615;SDS011;43816;52.054;-9.494;2022-09-09T00:43:29;1.08;;;0.80;;
57615;SDS011;43816;52.054;-9.494;2022-09-09T00:43:41;1.58;;;0.80;;
57615;SDS011;43816;52.054;-9.494;2022-09-09T00:43:57;2.13;;;1.10;;
57615;SDS011;43816;52.054;-9.494;2022-09-09T00:44:45;1.65;;;0.80;;
57615;SDS011;43816;52.054;-9.494;2022-09-09T00:47:04;1.13;;;0.82;;
57615;SDS011;43816;52.054;-9.494;2022-09-09T00:48:01;1.88;;;0.80;;
57615;SDS011;43816;52.054;-9.494;2022-09-09T00:48:19;1.60;;;0.70;;
57615;SDS011;43816;52.054;-9.494;2022-09-09T00:49:54;1.15;;;0.80;;
57615;SDS011;43816;52.054;-9.494;2022-09-09T00:52:02;1.38;;;0.80;;
57615;SDS011;43816;52.054;-9.494;2022-09-09T00:52:29;2.55;;;1.15;;
57615;SDS011;43816;52.054;-9.494;2022-09-09T00:54:17;1.55;;;0.73;;
57615;SDS011;43816;52.054;-9.494;2022-09-09T00:56:19;1.48;;;1.02;;
57615;SDS011;43816;52.054;-9.494;2022-09-09T00:56:39;2.13;;;0.93;;
57615;SDS011;43816;52.054;-9.494;2022-09-09T00:57:23;1.40;;;0.80;;
57615;SDS011;43816;52.054;-9.494;2022-09-09T00:57:39;1.23;;;0.80;;
57615;SDS011;43816;52.054;-9.494;2022-09-09T00:57:51;1.57;;;0.90;;
57615;SDS011;43816;52.054;-9.494;2022-09-09T00:58:02;1.20;;;0.90;;
57615;SDS011;43816;52.054;-9.494;2022-09-09T00:58:12;1.42;;;0.90;;
57615;SDS011;43816;52.054;-9.494;2022-09-09T00:58:22;1.60;;;0.83;;
57615;SDS011;43816;52.054;-9.494;2022-09-09T00:58:33;2.20;;;0.90;;
57615;SDS011;43816;52.054;-9.494;2022-09-09T00:58:46;2.00;;;0.95;;
57615;SDS011;43816;52.054;-9.494;2022-09-09T01:00:15;2.05;;;0.95;;
57615;SDS011;43816;52.054;-9.494;2022-09-09T01:00:28;1.40;;;0.70;;
57615;SDS011;43816;52.054;-9.494;2022-09-09T01:00:48;1.10;;;0.80;;
57615;SDS011;43816;52.054;-9.494;2022-09-09T01:01:20;1.70;;;0.90;;
57615;SDS011;43816;52.054;-9.494;2022-09-09T01:01:30;2.17;;;1.10;;
57615;SDS011;43816;52.054;-9.494;2022-09-09T01:01:40;1.97;;;0.93;;
57615;SDS011;43816;52.054;-9.494;2022-09-09T01:01:51;1.60;;;0.85;;
57615;SDS011;43816;52.054;-9.494;2022-09-09T01:02:21;1.55;;;0.70;;
57615;SDS011;43816;52.054;-9.494;2022-09-09T01:03:07;1.90;;;0.98;;
57615;SDS011;43816;52.054;-9.494;2022-09-09T01:04:03;1.60;;;0.88;;
57615;SDS011;43816;52.054;-9.494;2022-09-09T01:04:29;1.05;;;0.80;;
57615;SDS011;43816;52.054;-9.494;2022-09-09T01:04:44;1.88;;;0.80;;
57615;SDS011;43816;52.054;-9.494;2022-09-09T01:04:56;1.60;;;0.80;;
57615;SDS011;43816;52.054;-9.494;2022-09-09T01:05:30;2.03;;;0.80;;
57615;SDS011;43816;52.054;-9.494;2022-09-09T01:06:38;1.70;;;0.73;;
57615;SDS011;43816;52.054;-9.494;2022-09-09T01:06:49;1.95;;;0.75;;
57615;SDS011;43816;52.054;-9.494;2022-09-09T01:07:12;1.40;;;0.70;;
57615;SDS011;43816;52.054;-9.494;2022-09-09T01:07:27;1.33;;;0.80;;
57615;SDS011;43816;52.054;-9.494;2022-09-09T01:07:37;1.27;;;0.80;;
57615;SDS011;43816;52.054;-9.494;2022-09-09T01:07:49;1.40;;;0.80;;
57615;SDS011;43816;52.054;-9.494;2022-09-09T01:08:00;1.05;;;0.80;;
57615;SDS011;43816;52.054;-9.494;2022-09-09T01:09:29;0.88;;;0.80;;
57615;SDS011;43816;52.054;-9.494;2022-09-09T01:09:52;1.77;;;0.88;;
57615;SDS011;43816;52.054;-9.494;2022-09-09T01:10:11;1.27;;;0.90;;
57615;SDS011;43816;52.054;-9.494;2022-09-09T01:10:46;1.42;;;0.85;;
57615;SDS011;43816;52.054;-9.494;2022-09-09T01:10:58;1.10;;;0.68;;
57615;SDS011;43816;52.054;-9.494;2022-09-09T01:11:10;1.24;;;0.68;;
57615;SDS011;43816;52.054;-9.494;2022-09-09T01:12:15;1.27;;;0.80;;
57615;SDS011;43816;52.054;-9.494;2022-09-09T01:12:35;1.67;;;0.70;;
57615;SDS011;43816;52.054;-9.494;2022-09-09T01:12:50;1.50;;;0.80;;
57615;SDS011;43816;52.054;-9.494;2022-09-09T01:13:04;1.13;;;0.80;;
57615;SDS011;43816;52.054;-9.494;2022-09-09T01:13:31;1.23;;;0.70;;
57615;SDS011;43816;52.054;-9.494;2022-09-09T01:13:43;1.05;;;0.70;;
57615;SDS011;43816;52.054;-9.494;2022-09-09T01:14:38;1.40;;;0.80;;
57615;SDS011;43816;52.054;-9.494;2022-09-09T01:14:52;2.00;;;0.90;;
57615;SDS011;43816;52.054;-9.494;2022-09-09T01:15:12;2.33;;;0.90;;
57615;SDS011;43816;52.054;-9.494;2022-09-09T01:15:30;1.88;;;0.98;;
57615;SDS011;43816;52.054;-9.494;2022-09-09T01:15:42;1.55;;;0.85;;
57615;SDS011;43816;52.054;-9.494;2022-09-09T01:15:56;2.10;;;0.90;;
57615;SDS011;43816;52.054;-9.494;2022-09-09T01:16:10;1.98;;;0.90;;
57615;SDS011;43816;52.054;-9.494;2022-09-09T01:16:21;1.20;;;0.90;;
57615;SDS011;43816;52.054;-9.494;2022-09-09T01:16:31;1.50;;;0.90;;
57615;SDS011;43816;52.054;-9.494;2022-09-09T01:16:42;1.45;;;0.82;;
57615;SDS011;43816;52.054;-9.494;2022-09-09T01:16:54;1.48;;;0.80;;
57615;SDS011;43816;52.054;-9.494;2022-09-09T01:17:12;1.58;;;0.80;;
57615;SDS011;43816;52.054;-9.494;2022-09-09T01:17:24;3.00;;;0.80;;
57615;SDS011;43816;52.054;-9.494;2022-09-09T01:17:48;3.28;;;0.80;;
57615;SDS011;43816;52.054;-9.494;2022-09-09T01:18:21;1.30;;;0.77;;
57615;SDS011;43816;52.054;-9.494;2022-09-09T01:18:37;1.85;;;0.77;;
57615;SDS011;43816;52.054;-9.494;2022-09-09T01:18:53;1.65;;;0.75;;
57615;SDS011;43816;52.054;-9.494;2022-09-09T01:19:05;0.98;;;0.70;;
57615;SDS011;43816;52.054;-9.494;2022-09-09T01:19:36;1.00;;;0.70;;
57615;SDS011;43816;52.054;-9.494;2022-09-09T01:20:39;1.20;;;0.80;;
57615;SDS011;43816;52.054;-9.494;2022-09-09T01:21:09;0.98;;;0.80;;
57615;SDS011;43816;52.054;-9.494;2022-09-09T01:22:03;1.40;;;0.70;;
57615;SDS011;43816;52.054;-9.494;2022-09-09T01:22:44;1.13;;;0.65;;
57615;SDS011;43816;52.054;-9.494;2022-09-09T01:26:38;0.98;;;0.70;;
57615;SDS011;43816;52.054;-9.494;2022-09-09T01:26:58;1.13;;;0.70;;
57615;SDS011;43816;52.054;-9.494;2022-09-09T01:27:10;1.40;;;0.70;;
57615;SDS011;43816;52.054;-9.494;2022-09-09T01:27:23;1.35;;;0.70;;
57615;SDS011;43816;52.054;-9.494;2022-09-09T01:27:34;1.15;;;0.68;;
57615;SDS011;43816;52.054;-9.494;2022-09-09T01:27:46;0.90;;;0.70;;
57615;SDS011;43816;52.054;-9.494;2022-09-09T01:28:00;0.93;;;0.77;;
57615;SDS011;43816;52.054;-9.494;2022-09-09T01:28:21;1.42;;;0.90;;
57615;SDS011;43816;52.054;-9.494;2022-09-09T01:28:36;1.75;;;0.90;;
57615;SDS011;43816;52.054;-9.494;2022-09-09T01:28:47;1.52;;;0.80;;
57615;SDS011;43816;52.054;-9.494;2022-09-09T01:29:00;1.27;;;0.70;;
57615;SDS011;43816;52.054;-9.494;2022-09-09T01:29:17;1.50;;;0.70;;
57615;SDS011;43816;52.054;-9.494;2022-09-09T01:29:29;1.35;;;0.70;;
57615;SDS011;43816;52.054;-9.494;2022-09-09T01:29:39;1.25;;;0.70;;
57615;SDS011;43816;52.054;-9.494;2022-09-09T01:29:49;1.60;;;0.70;;
57615;SDS011;43816;52.054;-9.494;2022-09-09T01:30:00;1.73;;;0.80;;
57615;SDS011;43816;52.054;-9.494;2022-09-09T01:30:11;1.67;;;0.80;;
57615;SDS011;43816;52.054;-9.494;2022-09-09T01:30:23;1.50;;;0.80;;
57615;SDS011;43816;52.054;-9.494;2022-09-09T01:30:37;1.65;;;0.85;;
57615;SDS011;43816;52.054;-9.494;2022-09-09T01:30:49;1.17;;;0.80;;
57615;SDS011;43816;52.054;-9.494;2022-09-09T01:30:59;1.27;;;0.73;;
57615;SDS011;43816;52.054;-9.494;2022-09-09T01:31:14;0.98;;;0.70;;
57615;SDS011;43816;52.054;-9.494;2022-09-09T01:31:51;1.38;;;0.80;;
57615;SDS011;43816;52.054;-9.494;2022-09-09T01:32:50;1.38;;;0.90;;
57615;SDS011;43816;52.054;-9.494;2022-09-09T01:33:03;1.17;;;0.90;;
57615;SDS011;43816;52.054;-9.494;2022-09-09T01:33:15;1.30;;;0.88;;
57615;SDS011;43816;52.054;-9.494;2022-09-09T01:33:27;1.58;;;0.80;;
57615;SDS011;43816;52.054;-9.494;2022-09-09T01:33:37;1.48;;;0.70;;
57615;SDS011;43816;52.054;-9.494;2022-09-09T01:33:48;1.47;;;0.80;;
57615;SDS011;43816;52.054;-9.494;2022-09-09T01:33:58;1.03;;;0.80;;
57615;SDS011;43816;52.054;-9.494;2022-09-09T01:34:10;0.95;;;0.80;;
57615;SDS011;43816;52.054;-9.494;2022-09-09T01:34:23;1.20;;;0.80;;
57615;SDS011;43816;52.054;-9.494;2022-09-09T01:34:36;1.60;;;0.80;;
57615;SDS011;43816;52.054;-9.494;2022-09-09T01:34:50;2.05;;;0.70;;
57615;SDS011;43816;52.054;-9.494;2022-09-09T01:35:01;1.75;;;0.70;;
57615;SDS011;43816;52.054;-9.494;2022-09-09T01:35:15;1.70;;;0.70;;
57615;SDS011;43816;52.054;-9.494;2022-09-09T01:35:54;1.58;;;0.75;;
57615;SDS011;43816;52.054;-9.494;2022-09-09T01:36:19;0.98;;;0.60;;
57615;SDS011;43816;52.054;-9.494;2022-09-09T01:36:57;1.33;;;0.73;;
57615;SDS011;43816;52.054;-9.494;2022-09-09T01:37:11;1.70;;;0.80;;
57615;SDS011;43816;52.054;-9.494;2022-09-09T01:37:23;1.58;;;0.80;;
57615;SDS011;43816;52.054;-9.494;2022-09-09T01:37:33;1.52;;;0.73;;
57615;SDS011;43816;52.054;-9.494;2022-09-09T01:37:43;1.63;;;0.80;;
57615;SDS011;43816;52.054;-9.494;2022-09-09T01:37:53;1.50;;;0.80;;
57615;SDS011;43816;52.054;-9.494;2022-09-09T01:38:04;1.30;;;0.80;;
57615;SDS011;43816;52.054;-9.494;2022-09-09T01:38:15;1.10;;;0.70;;
57615;SDS011;43816;52.054;-9.494;2022-09-09T01:38:25;1.13;;;0.70;;
57615;SDS011;43816;52.054;-9.494;2022-09-09T01:38:37;1.10;;;0.77;;
57615;SDS011;43816;52.054;-9.494;2022-09-09T01:38:48;1.55;;;0.80;;
57615;SDS011;43816;52.054;-9.494;2022-09-09T01:38:58;1.33;;;0.70;;
57615;SDS011;43816;52.054;-9.494;2022-09-09T01:39:09;2.30;;;0.90;;
57615;SDS011;43816;52.054;-9.494;2022-09-09T01:39:20;1.80;;;0.80;;
57615;SDS011;43816;52.054;-9.494;2022-09-09T01:39:31;1.95;;;0.88;;
57615;SDS011;43816;52.054;-9.494;2022-09-09T01:39:44;1.95;;;0.82;;
57615;SDS011;43816;52.054;-9.494;2022-09-09T01:39:54;2.13;;;0.90;;
57615;SDS011;43816;52.054;-9.494;2022-09-09T01:40:05;1.42;;;0.80;;
57615;SDS011;43816;52.054;-9.494;2022-09-09T01:40:16;0.98;;;0.63;;
57615;SDS011;43816;52.054;-9.494;2022-09-09T01:40:27;0.80;;;0.60;;
57615;SDS011;43816;52.054;-9.494;2022-09-09T01:40:37;0.83;;;0.60;;
57615;SDS011;43816;52.054;-9.494;2022-09-09T01:40:48;0.77;;;0.70;;
57615;SDS011;43816;52.054;-9.494;2022-09-09T01:40:59;1.25;;;0.80;;
57615;SDS011;43816;52.054;-9.494;2022-09-09T01:41:10;1.30;;;0.70;;
57615;SDS011;43816;52.054;-9.494;2022-09-09T01:41:20;1.52;;;0.70;;
57615;SDS011;43816;52.054;-9.494;2022-09-09T01:41:31;1.27;;;0.60;;
57615;SDS011;43816;52.054;-9.494;2022-09-09T01:41:41;1.47;;;0.70;;
57615;SDS011;43816;52.054;-9.494;2022-09-09T01:41:52;1.38;;;0.70;;
57615;SDS011;43816;52.054;-9.494;2022-09-09T01:42:04;1.30;;;0.70;;
57615;SDS011;43816;52.054;-9.494;2022-09-09T01:42:16;0.93;;;0.70;;
57615;SDS011;43816;52.054;-9.494;2022-09-09T01:42:27;0.90;;;0.60;;
57615;SDS011;43816;52.054;-9.494;2022-09-09T01:42:37;1.00;;;0.60;;
57615;SDS011;43816;52.054;-9.494;2022-09-09T01:42:47;0.85;;;0.50;;
57615;SDS011;43816;52.054;-9.494;2022-09-09T01:42:58;0.90;;;0.60;;
57615;SDS011;43816;52.054;-9.494;2022-09-09T01:43:08;0.93;;;0.70;;
57615;SDS011;43816;52.054;-9.494;2022-09-09T01:43:22;1.00;;;0.70;;
57615;SDS011;43816;52.054;-9.494;2022-09-09T01:43:33;1.00;;;0.70;;
57615;SDS011;43816;52.054;-9.494;2022-09-09T01:43:43;1.27;;;0.80;;
57615;SDS011;43816;52.054;-9.494;2022-09-09T01:43:54;1.30;;;0.90;;
57615;SDS011;43816;52.054;-9.494;2022-09-09T01:44:05;1.25;;;0.80;;
57615;SDS011;43816;52.054;-9.494;2022-09-09T01:44:18;0.88;;;0.60;;
57615;SDS011;43816;52.054;-9.494;2022-09-09T01:44:29;1.13;;;0.80;;
57615;SDS011;43816;52.054;-9.494;2022-09-09T01:44:40;1.38;;;0.88;;
57615;SDS011;43816;52.054;-9.494;2022-09-09T01:44:51;1.60;;;0.90;;
57615;SDS011;43816;52.054;-9.494;2022-09-09T01:45:01;1.43;;;0.70;;
57615;SDS011;43816;52.054;-9.494;2022-09-09T01:45:11;1.02;;;0.60;;
57615;SDS011;43816;52.054;-9.494;2022-09-09T01:45:22;0.97;;;0.70;;
57615;SDS011;43816;52.054;-9.494;2022-09-09T01:45:33;1.00;;;0.80;;
57615;SDS011;43816;52.054;-9.494;2022-09-09T01:45:44;1.07;;;0.77;;
57615;SDS011;43816;52.054;-9.494;2022-09-09T01:45:58;0.90;;;0.65;;
57615;SDS011;43816;52.054;-9.494;2022-09-09T01:46:10;1.30;;;0.68;;
57615;SDS011;43816;52.054;-9.494;2022-09-09T01:46:22;1.48;;;0.80;;
57615;SDS011;43816;52.054;-9.494;2022-09-09T01:46:32;1.30;;;0.70;;
57615;SDS011;43816;52.054;-9.494;2022-09-09T01:46:43;0.80;;;0.70;;
57615;SDS011;43816;52.054;-9.494;2022-09-09T01:46:53;0.70;;;0.60;;
57615;SDS011;43816;52.054;-9.494;2022-09-09T01:47:04;0.97;;;0.70;;
57615;SDS011;43816;52.054;-9.494;2022-09-09T01:47:15;1.08;;;0.70;;
57615;SDS011;43816;52.054;-9.494;2022-09-09T01:47:25;1.33;;;0.80;;
57615;SDS011;43816;52.054;-9.494;2022-09-09T01:47:35;1.10;;;0.80;;
57615;SDS011;43816;52.054;-9.494;2022-09-09T01:47:46;1.10;;;0.80;;
57615;SDS011;43816;52.054;-9.494;2022-09-09T01:47:57;1.10;;;0.80;;
57615;SDS011;43816;52.054;-9.494;2022-09-09T01:48:09;1.02;;;0.70;;
57615;SDS011;43816;52.054;-9.494;2022-09-09T01:48:19;0.87;;;0.57;;
57615;SDS011;43816;52.054;-9.494;2022-09-09T01:48:32;0.77;;;0.60;;
57615;SDS011;43816;52.054;-9.494;2022-09-09T01:48:42;1.10;;;0.70;;
57615;SDS011;43816;52.054;-9.494;2022-09-09T01:48:55;0.90;;;0.70;;
57615;SDS011;43816;52.054;-9.494;2022-09-09T01:49:07;0.98;;;0.60;;
57615;SDS011;43816;52.054;-9.494;2022-09-09T01:49:18;0.90;;;0.60;;
57615;SDS011;43816;52.054;-9.494;2022-09-09T01:49:29;1.02;;;0.65;;
57615;SDS011;43816;52.054;-9.494;2022-09-09T01:49:39;1.10;;;0.70;;
57615;SDS011;43816;52.054;-9.494;2022-09-09T01:49:49;1.05;;;0.70;;
57615;SDS011;43816;52.054;-9.494;2022-09-09T01:50:00;1.07;;;0.70;;
57615;SDS011;43816;52.054;-9.494;2022-09-09T01:50:12;1.27;;;0.70;;
57615;SDS011;43816;52.054;-9.494;2022-09-09T01:50:24;0.93;;;0.68;;
57615;SDS011;43816;52.054;-9.494;2022-09-09T01:50:35;0.73;;;0.60;;
57615;SDS011;43816;52.054;-9.494;2022-09-09T01:50:45;0.88;;;0.60;;
57615;SDS011;43816;52.054;-9.494;2022-09-09T01:50:55;1.53;;;0.70;;
57615;SDS011;43816;52.054;-9.494;2022-09-09T01:51:07;1.27;;;0.70;;
57615;SDS011;43816;52.054;-9.494;2022-09-09T01:51:18;1.00;;;0.70;;
57615;SDS011;43816;52.054;-9.494;2022-09-09T01:51:29;0.60;;;0.60;;
57615;SDS011;43816;52.054;-9.494;2022-09-09T01:51:40;1.00;;;0.60;;
57615;SDS011;43816;52.054;-9.494;2022-09-09T01:51:53;1.67;;;0.60;;
57615;SDS011;43816;52.054;-9.494;2022-09-09T01:52:04;1.75;;;0.65;;
57615;SDS011;43816;52.054;-9.494;2022-09-09T01:52:15;1.53;;;0.70;;
57615;SDS011;43816;52.054;-9.494;2022-09-09T01:52:25;1.05;;;0.70;;
57615;SDS011;43816;52.054;-9.494;2022-09-09T01:52:36;0.73;;;0.70;;
57615;SDS011;43816;52.054;-9.494;2022-09-09T01:52:47;0.93;;;0.60;;
57615;SDS011;43816;52.054;-9.494;2022-09-09T01:53:00;1.10;;;0.60;;
57615;SDS011;43816;52.054;-9.494;2022-09-09T01:53:12;1.10;;;0.60;;
57615;SDS011;43816;52.054;-9.494;2022-09-09T01:53:24;1.33;;;0.70;;
57615;SDS011;43816;52.054;-9.494;2022-09-09T01:53:35;1.10;;;0.63;;
57615;SDS011;43816;52.054;-9.494;2022-09-09T01:53:45;0.90;;;0.68;;
57615;SDS011;43816;52.054;-9.494;2022-09-09T01:53:56;1.08;;;0.60;;
57615;SDS011;43816;52.054;-9.494;2022-09-09T01:54:06;1.37;;;0.67;;
57615;SDS011;43816;52.054;-9.494;2022-09-09T01:54:17;1.33;;;0.60;;
57615;SDS011;43816;52.054;-9.494;2022-09-09T01:54:30;0.80;;;0.65;;
57615;SDS011;43816;52.054;-9.494;2022-09-09T01:54:42;0.98;;;0.77;;
57615;SDS011;43816;52.054;-9.494;2022-09-09T01:54:53;0.93;;;0.70;;
57615;SDS011;43816;52.054;-9.494;2022-09-09T01:55:04;1.03;;;0.67;;
57615;SDS011;43816;52.054;-9.494;2022-09-09T01:55:15;1.25;;;0.90;;
57615;SDS011;43816;52.054;-9.494;2022-09-09T01:55:30;1.27;;;1.00;;
57615;SDS011;43816;52.054;-9.494;2022-09-09T01:55:45;1.30;;;0.90;;
57615;SDS011;43816;52.054;-9.494;2022-09-09T01:56:35;1.20;;;0.80;;
57615;SDS011;43816;52.054;-9.494;2022-09-09T01:57:18;1.77;;;0.80;;
57615;SDS011;43816;52.054;-9.494;2022-09-09T01:57:35;0.90;;;0.60;;
57615;SDS011;43816;52.054;-9.494;2022-09-09T01:58:10;0.80;;;0.68;;
57615;SDS011;43816;52.054;-9.494;2022-09-09T02:00:09;1.20;;;0.60;;
57615;SDS011;43816;52.054;-9.494;2022-09-09T02:00:21;1.15;;;0.60;;
57615;SDS011;43816;52.054;-9.494;2022-09-09T02:00:31;1.33;;;0.65;;
57615;SDS011;43816;52.054;-9.494;2022-09-09T02:00:50;1.10;;;0.70;;
57615;SDS011;43816;52.054;-9.494;2022-09-09T02:02:32;1.00;;;0.70;;
57615;SDS011;43816;52.054;-9.494;2022-09-09T02:03:20;0.75;;;0.73;;
57615;SDS011;43816;52.054;-9.494;2022-09-09T02:03:35;1.35;;;0.80;;
57615;SDS011;43816;52.054;-9.494;2022-09-09T02:03:47;1.30;;;0.77;;
57615;SDS011;43816;52.054;-9.494;2022-09-09T02:04:05;1.73;;;0.93;;
57615;SDS011;43816;52.054;-9.494;2022-09-09T02:04:40;0.90;;;0.65;;
57615;SDS011;43816;52.054;-9.494;2022-09-09T02:04:57;0.75;;;0.60;;
57615;SDS011;43816;52.054;-9.494;2022-09-09T02:05:27;1.33;;;0.60;;
57615;SDS011;43816;52.054;-9.494;2022-09-09T02:05:43;1.40;;;0.77;;
57615;SDS011;43816;52.054;-9.494;2022-09-09T02:06:32;1.00;;;0.60;;
57615;SDS011;43816;52.054;-9.494;2022-09-09T02:06:45;1.00;;;0.60;;
57615;SDS011;43816;52.054;-9.494;2022-09-09T02:06:57;0.95;;;0.50;;
57615;SDS011;43816;52.054;-9.494;2022-09-09T02:07:39;0.73;;;0.63;;
57615;SDS011;43816;52.054;-9.494;2022-09-09T02:07:53;1.33;;;0.70;;
57615;SDS011;43816;52.054;-9.494;2022-09-09T02:08:11;1.60;;;0.70;;
57615;SDS011;43816;52.054;-9.494;2022-09-09T02:08:43;1.15;;;0.70;;
57615;SDS011;43816;52.054;-9.494;2022-09-09T02:08:57;1.48;;;0.73;;
57615;SDS011;43816;52.054;-9.494;2022-09-09T02:09:10;1.88;;;0.80;;
57615;SDS011;43816;52.054;-9.494;2022-09-09T02:09:23;1.63;;;0.75;;
57615;SDS011;43816;52.054;-9.494;2022-09-09T02:09:35;1.38;;;0.70;;
57615;SDS011;43816;52.054;-9.494;2022-09-09T02:09:47;1.10;;;0.67;;
57615;SDS011;43816;52.054;-9.494;2022-09-09T02:10:13;1.50;;;0.77;;
57615;SDS011;43816;52.054;-9.494;2022-09-09T02:10:50;1.10;;;0.60;;
57615;SDS011;43816;52.054;-9.494;2022-09-09T02:11:27;1.08;;;0.80;;
57615;SDS011;43816;52.054;-9.494;2022-09-09T02:11:39;1.15;;;0.60;;
57615;SDS011;43816;52.054;-9.494;2022-09-09T02:11:55;1.17;;;0.60;;
57615;SDS011;43816;52.054;-9.494;2022-09-09T02:12:20;0.82;;;0.68;;
57615;SDS011;43816;52.054;-9.494;2022-09-09T02:12:35;0.95;;;0.70;;
57615;SDS011;43816;52.054;-9.494;2022-09-09T02:12:53;1.38;;;0.88;;
57615;SDS011;43816;52.054;-9.494;2022-09-09T02:13:11;1.20;;;0.70;;
57615;SDS011;43816;52.054;-9.494;2022-09-09T02:13:23;0.85;;;0.60;;
57615;SDS011;43816;52.054;-9.494;2022-09-09T02:13:35;1.02;;;0.70;;
57615;SDS011;43816;52.054;-9.494;2022-09-09T02:13:48;0.88;;;0.60;;